Hickory Regional Airport
KHKY : now visible

Aeroporto :











RITROVATECI SU...

 
LOGIN :

Iscrizione | Disclaimer

   EN    FR    IT 

 









Sommario :    VFR   VFR Marginale   IFR   IFR Intensivo   IFR Molto Intensivo
Visibilità : 
Base nubi : 
>= 8 km
>= 3000ft
5 / 8 km
1000 / 3000 ft
1500m / 5 km
500 / 1000 ft
800 / 1500m
200 / 500 ft
< 800m
< 200 ft
Simboli :   Temporali  Nebbia  Neve Forte  Precipitazioni Forti  Vento > 20 kt






- Altitudine del aeroporto : 1190 ft
- Codice IATA : HKY


KHKY - Hickory Regional

ULTIMO METAR :
  • 250753Z AUTO 23004KT 10SM OVC007 06/05 A2988 RMK AO2 SLP114 T00560050

METARs OBSOLETI :
  • 250653Z AUTO 22003KT 4SM BR OVC008 05/04 A2988 RMK AO2 SLP113 T00500044
  • 250619Z AUTO 27004KT 3SM BR OVC006 05/04 A2988 RMK AO2 T00500044
  • 250553Z AUTO 26003KT 1/2SM FG VV002 05/04 A2990 RMK AO2 SLP118 60000 T00500044 10056 20050 58004

TAF KHKY
Valido dal 25 a 06 ore il 26 a 06 ore UTC


250538Z 2506/2606 27003KT 1SM BR OVC003
TEMPO 2506/2509 4SM BR OVC008
FM251400 29005KT P6SM SCT035
FM251800 30007KT P6SM FEW040



MetMap, La meteo Aeronautica in un colpo d'occhio ! - Copyright ORBIFLY Dicembre 2007 - Disclaimer

ORBIFLY MET'MAP TEAM :

Programmazione e sviluppo : Alexandra Zaïnal
Concezione : Baudouin d'Aumeries
Aiuto per la programmazione : Marc-Olivier Méhu
Supporto tecnico e logistico : Manuel Goepfert
Aiuto per la traduzione : Arnaldo La Scala

Contatto : metmap@orbifly.com




FONTI E CREDITI :

   NOAA       Earth
Advisory